Time;durP1;ratioP1;P1;durP2;ratioP2;P2;SDS_P1;SDS_P2;PMS_P1;PMS_P2;Temp;Humidity;BMP_temperature;BMP_pressure;BME280_temperature;BME280_humidity;BME280_pressure;Samples;Min_cycle;Max_cycle;Signal;HPM_P1;HPM_P2
2022/01/12 00:00:07;;;;;;;0.20;0.20;;;2.70;99.90;;;;;;5040285;28;20061;-64
2022/01/12 00:02:32;;;;;;;0.00;0.00;;;2.70;99.90;;;;;;5022897;28;20239;-62
2022/01/12 00:04:58;;;;;;;0.05;0.05;;;3.20;99.90;;;;;;5041179;28;20079;-63
2022/01/12 00:07:24;;;;;;;0.00;0.00;;;2.70;99.90;;;;;;5023150;28;20045;-63
2022/01/12 00:09:49;;;;;;;0.00;0.00;;;2.70;99.90;;;;;;5040098;28;20049;-63
2022/01/12 00:12:15;;;;;;;0.00;0.00;;;2.80;99.90;;;;;;5040725;28;20044;-64
2022/01/12 00:14:40;;;;;;;0.00;0.00;;;2.70;99.90;;;;;;5040008;28;20088;-62
2022/01/12 00:17:07;;;;;;;0.38;0.38;;;2.70;99.90;;;;;;5040156;28;20076;-63
2022/01/12 00:19:32;;;;;;;0.00;0.00;;;2.80;99.90;;;;;;5040727;28;20392;-62
2022/01/12 00:21:58;;;;;;;0.10;0.10;;;2.70;99.90;;;;;;5040737;28;20049;-63
2022/01/12 00:24:27;;;;;;;0.00;0.00;;;2.80;99.90;;;;;;5022729;28;20049;-64
2022/01/12 00:35:06;;;;;;;0.00;0.00;;;2.70;99.90;;;;;;5060455;28;20045;-63
2022/01/12 00:37:31;;;;;;;0.00;0.00;;;2.80;99.90;;;;;;5060888;28;20082;-62
2022/01/12 00:39:58;;;;;;;35.83;10.00;;;2.80;99.90;;;;;;5059430;28;20055;-63
2022/01/12 00:42:27;;;;;;;0.03;0.03;;;2.80;99.90;;;;;;5060054;28;20052;-63
2022/01/12 00:44:53;;;;;;;0.10;0.10;;;2.80;99.90;;;;;;5060015;28;20055;-63
2022/01/12 00:47:19;;;;;;;0.00;0.00;;;2.80;99.90;;;;;;5059212;28;20048;-62
2022/01/12 00:49:45;;;;;;;0.13;0.13;;;2.80;99.90;;;;;;5059330;28;20117;-64
2022/01/12 00:52:11;;;;;;;0.30;0.10;;;2.80;99.90;;;;;;5060047;28;20076;-63
2022/01/12 00:54:38;;;;;;;0.00;0.00;;;2.00;99.90;;;;;;5041827;28;20048;-63
2022/01/12 00:57:05;;;;;;;0.52;0.50;;;2.80;99.90;;;;;;5059893;28;20132;-62
2022/01/12 00:59:30;;;;;;;0.10;0.10;;;2.80;99.90;;;;;;5059706;28;20044;-61
2022/01/12 01:01:56;;;;;;;0.30;0.30;;;2.80;99.90;;;;;;5059203;28;20126;-63
2022/01/12 01:04:22;;;;;;;0.00;0.00;;;2.80;99.90;;;;;;5041793;28;20259;-61
2022/01/12 01:06:50;;;;;;;0.00;0.00;;;2.80;99.90;;;;;;5041779;28;20052;-62
2022/01/12 01:09:16;;;;;;;0.00;0.00;;;2.80;99.90;;;;;;5059651;28;20044;-62
2022/01/12 01:11:42;;;;;;;0.00;0.00;;;2.80;99.90;;;;;;5059670;28;20045;-62
2022/01/12 01:14:16;;;;;;;0.52;0.52;;;2.90;99.90;;;;;;5059609;28;20055;-62
2022/01/12 01:27:27;;;;;;;0.00;0.00;;;2.80;99.90;;;;;;5056856;28;20095;-63
2022/01/12 01:29:54;;;;;;;0.00;0.00;;;2.80;99.90;;;;;;5039583;28;20709;-63
2022/01/12 01:32:20;;;;;;;0.00;0.00;;;2.90;99.90;;;;;;5038859;28;20064;-61
2022/01/12 01:34:48;;;;;;;0.00;0.00;;;2.90;99.90;;;;;;5039440;28;20404;-62
2022/01/12 01:37:14;;;;;;;0.00;0.00;;;2.90;99.90;;;;;;5038754;28;20059;-64
2022/01/12 01:39:40;;;;;;;0.38;0.30;;;2.90;99.90;;;;;;5021861;28;20041;-64
2022/01/12 01:42:16;;;;;;;0.00;0.00;;;2.90;99.90;;;;;;5039695;28;20037;-62
2022/01/12 01:55:28;;;;;;;0.20;0.20;;;3.00;99.90;;;;;;5038520;28;20053;-63
2022/01/12 01:57:54;;;;;;;0.00;0.00;;;3.00;99.90;;;;;;5039223;28;20041;-63
2022/01/12 02:00:23;;;;;;;0.00;0.00;;;3.00;99.90;;;;;;5038918;28;20061;-63
2022/01/12 02:02:50;;;;;;;0.40;0.20;;;3.00;99.90;;;;;;5021418;28;20546;-64
2022/01/12 02:05:16;;;;;;;0.00;0.00;;;3.00;99.90;;;;;;5020545;28;20049;-64
2022/01/12 02:07:43;;;;;;;0.00;0.00;;;3.00;99.90;;;;;;5039098;28;20087;-62
2022/01/12 02:10:09;;;;;;;0.00;0.00;;;3.00;99.90;;;;;;5021577;28;20045;-63
2022/01/12 02:12:35;;;;;;;0.00;0.00;;;3.00;99.90;;;;;;5038459;28;20076;-63
2022/01/12 02:15:02;;;;;;;0.00;0.00;;;3.10;99.90;;;;;;5038929;28;20111;-63
2022/01/12 02:17:35;;;;;;;0.00;0.00;;;3.00;99.90;;;;;;5038525;28;20037;-63
2022/01/12 02:20:31;;;;;;;0.00;0.00;;;3.10;99.90;;;;;;5039226;28;20052;-63
2022/01/12 02:36:57;;;;;;;0.00;0.00;;;3.10;99.90;;;;;;5039427;28;20057;-64
2022/01/12 02:39:52;;;;;;;0.00;0.00;;;3.00;99.90;;;;;;5041278;28;20796;-62
2022/01/12 02:42:19;;;;;;;0.00;0.00;;;3.00;99.90;;;;;;5042444;28;20087;-64
2022/01/12 02:55:44;;;;;;;0.00;0.00;;;3.00;99.90;;;;;;5041462;28;20059;-61
2022/01/12 02:58:09;;;;;;;0.00;0.00;;;3.00;99.90;;;;;;5042182;28;20049;-64
2022/01/12 03:03:24;;;;;;;0.00;0.00;;;3.00;99.90;;;;;;4983052;28;20214;-62
2022/01/12 03:05:58;;;;;;;0.00;0.00;;;2.90;99.90;;;;;;5024256;28;20084;-61
2022/01/12 03:08:25;;;;;;;0.00;0.00;;;2.90;99.90;;;;;;5041981;28;20055;-61
2022/01/12 03:10:51;;;;;;;0.00;0.00;;;2.90;99.90;;;;;;5023105;28;20095;-63
2022/01/12 03:13:17;;;;;;;0.00;0.00;;;2.90;99.90;;;;;;5041777;28;20322;-61
2022/01/12 03:15:42;;;;;;;0.00;0.00;;;2.90;99.90;;;;;;5041187;28;20045;-62
2022/01/12 03:18:09;;;;;;;0.00;0.00;;;2.90;99.90;;;;;;5041914;28;20471;-61
2022/01/12 03:20:34;;;;;;;0.00;0.00;;;2.90;99.90;;;;;;5041044;28;20499;-61
2022/01/12 03:23:00;;;;;;;0.00;0.00;;;2.80;99.90;;;;;;5024277;28;20048;-61
2022/01/12 03:25:26;;;;;;;0.00;0.00;;;2.90;99.90;;;;;;5041584;28;20064;-61
2022/01/12 03:27:58;;;;;;;0.80;0.43;;;2.80;99.90;;;;;;5044447;28;20721;-62
2022/01/12 03:30:23;;;;;;;0.00;0.00;;;2.90;99.90;;;;;;5048948;28;20519;-62
2022/01/12 03:33:03;;;;;;;0.00;0.00;;;2.80;99.90;;;;;;5041264;28;20090;-61
2022/01/12 03:35:48;;;;;;;0.65;0.35;;;2.80;99.90;;;;;;5041948;28;20033;-61
2022/01/12 03:38:20;;;;;;;0.00;0.00;;;2.80;99.90;;;;;;5024000;28;20053;-61
2022/01/12 03:40:46;;;;;;;0.00;0.00;;;2.80;99.90;;;;;;5041447;28;20048;-62
2022/01/12 03:43:12;;;;;;;0.00;0.00;;;2.80;99.90;;;;;;5022801;28;20570;-62
2022/01/12 03:45:38;;;;;;;0.00;0.00;;;2.80;99.90;;;;;;5040830;28;20048;-62
2022/01/12 03:48:04;;;;;;;0.00;0.00;;;2.80;99.90;;;;;;5041053;28;20053;-61
2022/01/12 03:50:30;;;;;;;0.20;0.20;;;2.80;99.90;;;;;;5023086;28;20416;-62
2022/01/12 03:52:55;;;;;;;0.00;0.00;;;2.80;99.90;;;;;;5022485;28;20049;-62
2022/01/12 03:55:21;;;;;;;0.00;0.00;;;2.80;99.90;;;;;;5023252;28;20132;-61
2022/01/12 03:57:46;;;;;;;0.00;0.00;;;2.70;99.90;;;;;;5023296;28;20051;-61
2022/01/12 04:00:12;;;;;;;0.00;0.00;;;2.70;99.90;;;;;;5040344;28;20056;-61
2022/01/12 04:02:39;;;;;;;0.00;0.00;;;2.70;99.90;;;;;;5022532;28;20412;-62
2022/01/12 04:10:21;;;;;;;0.00;0.00;;;2.70;99.90;;;;;;5040923;28;20045;-61
2022/01/12 04:12:47;;;;;;;0.00;0.00;;;2.70;99.90;;;;;;5040505;28;20052;-63
2022/01/12 04:15:12;;;;;;;0.00;0.00;;;2.60;99.90;;;;;;5040252;28;20057;-61
2022/01/12 04:17:38;;;;;;;0.00;0.00;;;2.60;99.90;;;;;;5040233;28;20223;-61
2022/01/12 04:20:04;;;;;;;0.00;0.00;;;2.60;99.90;;;;;;5040415;28;20044;-62
2022/01/12 04:25:14;;;;;;;0.00;0.00;;;2.50;99.90;;;;;;5040038;28;20037;-61
2022/01/12 04:27:40;;;;;;;0.00;0.00;;;2.50;99.90;;;;;;5043304;28;20048;-62
2022/01/12 04:30:06;;;;;;;0.00;0.00;;;2.50;99.90;;;;;;5048798;28;20049;-62
2022/01/12 04:32:37;;;;;;;0.00;0.00;;;2.50;99.90;;;;;;5040641;28;20052;-61
2022/01/12 04:35:03;;;;;;;0.00;0.00;;;2.50;99.90;;;;;;5039980;28;20622;-61
2022/01/12 04:37:28;;;;;;;0.00;0.00;;;2.50;99.90;;;;;;5040851;28;20120;-61
2022/01/12 04:39:54;;;;;;;0.00;0.00;;;2.40;99.90;;;;;;5040259;28;20123;-63
2022/01/12 04:42:19;;;;;;;0.00;0.00;;;2.40;99.90;;;;;;5022599;28;20480;-61
2022/01/12 04:44:48;;;;;;;0.00;0.00;;;2.30;99.90;;;;;;5039492;28;20144;-61
2022/01/12 04:47:29;;;;;;;0.00;0.00;;;2.30;99.90;;;;;;5039923;28;20075;-62
2022/01/12 04:49:56;;;;;;;0.00;0.00;;;2.20;99.90;;;;;;5039712;28;20045;-62
2022/01/12 04:52:23;;;;;;;0.00;0.00;;;2.10;99.90;;;;;;5022138;28;21078;-63
2022/01/12 04:54:48;;;;;;;0.00;0.00;;;2.00;99.90;;;;;;5039792;28;20530;-61
2022/01/12 04:57:14;;;;;;;0.00;0.00;;;2.00;99.90;;;;;;5040366;28;20041;-62
2022/01/12 04:59:53;;;;;;;0.00;0.00;;;1.90;99.90;;;;;;5039379;28;20072;-63
2022/01/12 05:08:09;;;;;;;0.00;0.00;;;1.80;99.90;;;;;;5039888;28;20067;-63
2022/01/12 05:13:17;;;;;;;0.00;0.00;;;1.80;99.90;;;;;;5039379;28;20199;-62
2022/01/12 05:15:42;;;;;;;0.00;0.00;;;1.80;99.90;;;;;;5038651;28;20128;-62
2022/01/12 05:18:08;;;;;;;0.00;0.00;;;1.80;99.90;;;;;;5039370;28;20045;-63
2022/01/12 05:20:34;;;;;;;0.00;0.00;;;1.90;99.90;;;;;;5022010;28;20041;-62
2022/01/12 05:23:00;;;;;;;0.00;0.00;;;1.80;99.90;;;;;;5039908;28;20037;-63
2022/01/12 05:25:26;;;;;;;0.10;0.10;;;2.20;99.90;;;;;;5039532;28;20064;-62
2022/01/12 05:27:53;;;;;;;0.00;0.00;;;1.90;99.90;;;;;;5041180;28;20032;-62
2022/01/12 05:30:19;;;;;;;0.00;0.00;;;1.90;99.90;;;;;;5047473;28;20052;-64
2022/01/12 05:32:46;;;;;;;0.00;0.00;;;1.90;99.90;;;;;;5039657;28;20048;-61
2022/01/12 05:35:13;;;;;;;0.00;0.00;;;1.90;99.90;;;;;;5038950;28;20044;-62
2022/01/12 05:37:40;;;;;;;0.00;0.00;;;1.90;99.90;;;;;;5039832;28;20048;-61
2022/01/12 05:40:06;;;;;;;0.00;0.00;;;1.90;99.90;;;;;;5039633;28;20051;-62
2022/01/12 05:42:33;;;;;;;0.00;0.00;;;1.90;99.90;;;;;;5039600;28;20053;-61
2022/01/12 05:44:59;;;;;;;0.00;0.00;;;1.90;99.90;;;;;;5038148;28;20055;-61
2022/01/12 05:50:03;;;;;;;0.65;0.45;;;1.80;99.90;;;;;;5039621;28;20135;-63
2022/01/12 05:52:28;;;;;;;0.00;0.00;;;1.80;99.90;;;;;;5039060;28;20412;-64
2022/01/12 05:54:54;;;;;;;0.00;0.00;;;1.80;99.90;;;;;;5039192;28;20049;-61
2022/01/12 05:57:20;;;;;;;0.00;0.00;;;1.70;99.90;;;;;;5039338;28;20128;-61
2022/01/12 05:59:45;;;;;;;0.00;0.00;;;1.70;99.90;;;;;;5038667;28;20059;-61
2022/01/12 06:02:11;;;;;;;0.00;0.00;;;2.10;99.90;;;;;;5038820;28;20052;-61
2022/01/12 06:04:37;;;;;;;0.00;0.00;;;1.70;99.90;;;;;;5039291;28;20037;-62
2022/01/12 06:07:03;;;;;;;0.00;0.00;;;1.70;99.90;;;;;;5038032;28;20113;-62
2022/01/12 06:09:28;;;;;;;0.00;0.00;;;1.70;99.90;;;;;;5039892;28;20047;-61
2022/01/12 06:11:54;;;;;;;0.00;0.00;;;1.70;99.90;;;;;;5038214;28;20396;-64
2022/01/12 06:14:21;;;;;;;0.00;0.00;;;1.70;99.90;;;;;;5041522;28;20095;-61
2022/01/12 06:16:47;;;;;;;0.00;0.00;;;1.70;99.90;;;;;;5042085;28;20780;-63
2022/01/12 06:19:12;;;;;;;0.00;0.00;;;1.70;99.90;;;;;;5043268;28;20052;-63
2022/01/12 06:21:38;;;;;;;0.00;0.00;;;1.70;99.90;;;;;;5042740;28;20053;-62
2022/01/12 06:24:04;;;;;;;0.00;0.00;;;1.70;99.90;;;;;;5043006;28;20049;-62
2022/01/12 06:26:30;;;;;;;0.00;0.00;;;1.70;99.90;;;;;;5043274;28;20037;-62
2022/01/12 06:31:42;;;;;;;0.00;0.00;;;1.60;99.90;;;;;;5042302;28;20428;-62
2022/01/12 06:34:08;;;;;;;0.00;0.00;;;1.60;99.90;;;;;;5042571;28;20045;-62
2022/01/12 06:36:33;;;;;;;0.00;0.00;;;1.60;99.90;;;;;;5042899;28;20052;-63
2022/01/12 06:38:59;;;;;;;0.00;0.00;;;1.60;99.90;;;;;;5024577;28;20041;-63
2022/01/12 06:41:25;;;;;;;0.00;0.00;;;1.50;99.90;;;;;;5042668;28;20083;-61
2022/01/12 06:43:51;;;;;;;0.00;0.00;;;1.50;99.90;;;;;;5042375;28;20041;-61
2022/01/12 06:46:23;;;;;;;0.00;0.00;;;1.50;99.90;;;;;;5041939;28;20045;-64
2022/01/12 06:48:49;;;;;;;0.00;0.00;;;1.50;99.90;;;;;;5024470;28;20073;-62
2022/01/12 06:51:14;;;;;;;0.00;0.00;;;1.40;99.90;;;;;;5024728;28;20518;-62
2022/01/12 06:53:40;;;;;;;0.00;0.00;;;1.40;99.90;;;;;;5042316;28;20470;-62
2022/01/12 06:56:08;;;;;;;0.00;0.00;;;1.30;99.90;;;;;;5023774;28;20049;-62
2022/01/12 06:58:34;;;;;;;0.00;0.00;;;1.30;99.90;;;;;;5024354;28;20578;-62
2022/01/12 07:01:00;;;;;;;0.00;0.00;;;1.30;99.90;;;;;;5041839;28;20111;-62
2022/01/12 07:03:26;;;;;;;0.00;0.00;;;1.30;99.90;;;;;;5042031;28;20056;-62
2022/01/12 07:05:52;;;;;;;0.00;0.00;;;1.30;99.90;;;;;;5041283;28;20049;-62
2022/01/12 07:08:17;;;;;;;0.00;0.00;;;1.30;99.90;;;;;;5024283;28;20060;-62
2022/01/12 07:10:43;;;;;;;0.00;0.00;;;1.20;99.90;;;;;;5024032;28;20084;-62
2022/01/12 07:13:10;;;;;;;0.00;0.00;;;1.20;99.90;;;;;;5041897;28;20514;-62
2022/01/12 07:15:38;;;;;;;0.00;0.00;;;1.20;99.90;;;;;;5040803;28;20474;-62
2022/01/12 07:18:04;;;;;;;0.00;0.00;;;1.20;99.90;;;;;;5024071;28;20081;-62
2022/01/12 07:20:30;;;;;;;0.00;0.00;;;1.20;99.90;;;;;;5042210;28;20745;-62
2022/01/12 07:22:55;;;;;;;0.05;0.05;;;1.10;99.90;;;;;;5041409;28;20033;-62
2022/01/12 07:25:21;;;;;;;0.00;0.00;;;1.10;99.90;;;;;;5021741;28;20045;-62
2022/01/12 07:27:47;;;;;;;0.00;0.00;;;1.10;99.90;;;;;;5028184;28;20606;-63
2022/01/12 07:30:12;;;;;;;0.00;0.00;;;1.10;99.90;;;;;;5052165;28;20059;-63
2022/01/12 07:32:38;;;;;;;0.00;0.00;;;1.10;99.90;;;;;;5061538;28;20557;-62
2022/01/12 07:35:05;;;;;;;0.00;0.00;;;1.10;99.90;;;;;;5060304;28;20041;-62
2022/01/12 07:37:31;;;;;;;0.00;0.00;;;1.10;99.90;;;;;;5061742;28;20084;-63
2022/01/12 07:39:57;;;;;;;0.00;0.00;;;1.10;99.90;;;;;;5061091;28;20068;-63
2022/01/12 07:42:23;;;;;;;0.00;0.00;;;1.10;99.90;;;;;;5060829;28;20535;-63
2022/01/12 07:44:49;;;;;;;0.00;0.00;;;1.10;99.90;;;;;;5042519;28;20105;-63
2022/01/12 07:47:15;;;;;;;0.00;0.00;;;1.10;99.90;;;;;;5060836;28;20060;-64
2022/01/12 07:49:41;;;;;;;0.00;0.00;;;1.00;99.90;;;;;;5060812;28;20560;-63
2022/01/12 07:52:07;;;;;;;0.10;0.10;;;1.00;99.90;;;;;;5060214;28;20076;-63
2022/01/12 07:54:32;;;;;;;0.00;0.00;;;1.00;99.90;;;;;;5061371;28;20092;-63
2022/01/12 07:56:58;;;;;;;0.00;0.00;;;1.00;99.90;;;;;;5061243;28;20083;-64
2022/01/12 07:59:24;;;;;;;0.00;0.00;;;1.00;99.90;;;;;;5060269;28;20047;-65
2022/01/12 08:01:50;;;;;;;0.03;0.03;;;1.10;99.90;;;;;;5060028;28;20143;-63
2022/01/12 08:04:16;;;;;;;0.17;0.10;;;1.10;99.90;;;;;;5060953;28;21190;-64
2022/01/12 08:06:42;;;;;;;0.00;0.00;;;1.10;99.90;;;;;;5060908;28;20048;-63
2022/01/12 08:09:07;;;;;;;0.00;0.00;;;1.10;99.90;;;;;;5060949;28;20040;-64
2022/01/12 08:11:34;;;;;;;0.00;0.00;;;1.10;99.90;;;;;;5042174;28;20434;-63
2022/01/12 08:13:59;;;;;;;0.00;0.00;;;1.10;99.90;;;;;;5060825;28;20132;-63
2022/01/12 08:16:25;;;;;;;0.00;0.00;;;1.20;99.90;;;;;;5059775;28;20163;-64
2022/01/12 08:18:51;;;;;;;0.00;0.00;;;1.20;99.90;;;;;;5060157;28;20098;-65
2022/01/12 08:21:16;;;;;;;0.00;0.00;;;1.10;99.90;;;;;;5059540;28;20044;-64
2022/01/12 08:23:42;;;;;;;0.60;0.47;;;1.20;99.90;;;;;;5060300;28;20097;-63
2022/01/12 08:26:08;;;;;;;0.00;0.00;;;1.20;99.90;;;;;;5060426;28;20068;-63
2022/01/12 08:28:34;;;;;;;0.00;0.00;;;1.40;99.90;;;;;;5041887;28;20577;-63
2022/01/12 08:31:00;;;;;;;0.00;0.00;;;1.20;99.90;;;;;;5042939;28;20287;-64
2022/01/12 08:33:26;;;;;;;0.00;0.00;;;1.20;99.90;;;;;;5040174;28;20453;-63
2022/01/12 08:35:52;;;;;;;0.00;0.00;;;1.20;99.90;;;;;;5039725;28;20084;-63
2022/01/12 08:38:18;;;;;;;0.00;0.00;;;1.20;99.90;;;;;;5040269;28;20044;-64
2022/01/12 08:40:44;;;;;;;0.00;0.00;;;1.20;99.90;;;;;;5021790;28;20111;-63
2022/01/12 08:43:10;;;;;;;0.03;0.03;;;1.30;99.90;;;;;;5040263;28;20492;-63
2022/01/12 08:45:36;;;;;;;0.00;0.00;;;1.30;99.90;;;;;;5039483;28;20033;-63
2022/01/12 08:48:01;;;;;;;0.00;0.00;;;2.00;99.90;;;;;;5040220;28;20053;-64
2022/01/12 08:50:27;;;;;;;0.00;0.00;;;1.40;99.90;;;;;;5039172;28;20064;-63
2022/01/12 08:52:53;;;;;;;0.00;0.00;;;1.40;99.90;;;;;;5039967;28;20067;-64
2022/01/12 08:55:21;;;;;;;0.00;0.00;;;1.50;99.90;;;;;;5022115;28;20057;-63
2022/01/12 08:57:46;;;;;;;0.00;0.00;;;1.50;99.90;;;;;;5039872;28;20380;-64
2022/01/12 09:00:14;;;;;;;0.00;0.00;;;1.50;99.90;;;;;;5020788;28;20171;-64
2022/01/12 09:02:40;;;;;;;0.00;0.00;;;1.50;99.90;;;;;;5039928;28;20122;-63
2022/01/12 09:05:07;;;;;;;0.00;0.00;;;1.50;99.90;;;;;;5039880;28;20056;-64
2022/01/12 09:07:34;;;;;;;0.00;0.00;;;1.50;99.90;;;;;;5039728;28;20063;-63
2022/01/12 09:10:00;;;;;;;0.00;0.00;;;1.50;99.90;;;;;;5021625;28;20060;-65
2022/01/12 09:12:26;;;;;;;0.00;0.00;;;1.50;99.90;;;;;;5039710;28;20129;-62
2022/01/12 09:14:53;;;;;;;0.00;0.00;;;1.60;99.90;;;;;;5038033;28;20190;-61
2022/01/12 09:17:21;;;;;;;0.00;0.00;;;1.60;99.90;;;;;;5038712;28;20591;-61
2022/01/12 09:19:47;;;;;;;0.00;0.00;;;1.60;99.90;;;;;;5039726;28;20159;-61
2022/01/12 09:22:13;;;;;;;0.00;0.00;;;1.60;99.90;;;;;;5039854;28;20080;-63
2022/01/12 09:24:39;;;;;;;0.00;0.00;;;1.70;99.90;;;;;;5039787;28;20048;-64
2022/01/12 09:27:05;;;;;;;0.00;0.00;;;1.60;99.90;;;;;;5039637;28;20051;-63
2022/01/12 09:29:31;;;;;;;0.00;0.00;;;1.70;99.90;;;;;;5049952;28;20045;-65
2022/01/12 09:31:56;;;;;;;0.00;0.00;;;1.80;99.90;;;;;;5039073;28;20511;-64
2022/01/12 09:34:22;;;;;;;0.00;0.00;;;2.50;99.90;;;;;;5039348;28;20145;-63
2022/01/12 09:36:48;;;;;;;0.00;0.00;;;1.90;99.90;;;;;;5038731;28;20048;-64
2022/01/12 09:39:13;;;;;;;0.00;0.00;;;2.00;99.90;;;;;;5039598;28;20045;-64
2022/01/12 09:41:39;;;;;;;0.00;0.00;;;2.00;99.90;;;;;;5021650;28;20141;-64
2022/01/12 09:44:05;;;;;;;0.00;0.00;;;2.10;99.90;;;;;;5020655;28;20044;-64
2022/01/12 09:46:31;;;;;;;0.00;0.00;;;2.40;99.90;;;;;;5038841;28;20057;-63
2022/01/12 09:48:59;;;;;;;0.00;0.00;;;2.20;99.90;;;;;;5041662;28;20040;-64
2022/01/12 09:51:25;;;;;;;0.00;0.00;;;2.20;99.90;;;;;;5043261;28;20063;-64
2022/01/12 09:53:52;;;;;;;0.00;0.00;;;2.20;99.90;;;;;;5043106;28;20442;-64
2022/01/12 09:56:21;;;;;;;0.00;0.00;;;2.10;99.90;;;;;;5042477;28;20116;-64
2022/01/12 09:58:51;;;;;;;0.00;0.00;;;2.20;99.90;;;;;;5025253;28;20136;-64
2022/01/12 10:01:31;;;;;;;0.00;0.00;;;2.20;99.90;;;;;;5042426;28;20049;-64
2022/01/12 10:04:15;;;;;;;0.00;0.00;;;2.10;99.90;;;;;;5042670;28;20052;-65
2022/01/12 10:06:53;;;;;;;0.00;0.00;;;2.30;99.90;;;;;;5024971;28;20037;-63
2022/01/12 10:09:25;;;;;;;0.00;0.00;;;2.30;99.90;;;;;;5042618;28;20041;-62
2022/01/12 10:11:52;;;;;;;0.00;0.00;;;2.30;99.90;;;;;;5042866;28;20131;-63
2022/01/12 10:14:18;;;;;;;0.00;0.00;;;2.30;99.90;;;;;;5050637;28;20107;-62
2022/01/12 10:16:56;;;;;;;0.00;0.00;;;2.40;99.90;;;;;;5043528;28;20048;-61
2022/01/12 10:19:27;;;;;;;0.00;0.00;;;2.40;99.90;;;;;;5062259;28;20155;-61
2022/01/12 10:21:54;;;;;;;0.28;0.28;;;2.50;99.90;;;;;;5062113;28;20106;-63
2022/01/12 10:24:20;;;;;;;0.00;0.00;;;2.50;99.90;;;;;;5061754;28;20045;-62
2022/01/12 10:26:47;;;;;;;0.00;0.00;;;2.60;99.90;;;;;;5062055;28;20533;-63
2022/01/12 10:29:13;;;;;;;0.00;0.00;;;2.50;99.90;;;;;;5036783;28;20618;-61
2022/01/12 10:31:48;;;;;;;0.00;0.00;;;2.60;99.90;;;;;;5048768;28;20051;-63
2022/01/12 10:34:15;;;;;;;0.00;0.00;;;2.70;99.90;;;;;;5060770;28;20051;-64
2022/01/12 10:36:43;;;;;;;0.00;0.00;;;2.70;99.90;;;;;;5061905;28;20477;-62
2022/01/12 10:39:11;;;;;;;0.00;0.00;;;2.70;99.90;;;;;;5062197;28;20462;-62
2022/01/12 10:42:01;;;;;;;0.00;0.00;;;2.80;99.90;;;;;;5060716;28;20052;-59
2022/01/12 10:44:30;;;;;;;0.00;0.00;;;2.80;99.90;;;;;;5061674;28;20416;-60
2022/01/12 10:47:12;;;;;;;0.00;0.00;;;2.90;99.90;;;;;;5061413;28;20036;-61
2022/01/12 10:49:46;;;;;;;0.00;0.00;;;3.00;99.90;;;;;;5062199;28;20049;-63
2022/01/12 10:52:14;;;;;;;0.00;0.00;;;3.10;99.90;;;;;;5061895;28;20091;-62
2022/01/12 10:54:43;;;;;;;0.00;0.00;;;3.10;99.90;;;;;;5061495;28;20450;-61
2022/01/12 10:57:17;;;;;;;0.00;0.00;;;3.20;99.90;;;;;;5061573;28;20051;-61
2022/01/12 10:59:47;;;;;;;0.00;0.00;;;3.20;99.90;;;;;;5061786;28;20525;-61
2022/01/12 11:02:14;;;;;;;0.00;0.00;;;3.30;99.90;;;;;;5061458;28;20044;-62
2022/01/12 11:04:42;;;;;;;0.00;0.00;;;3.40;99.90;;;;;;5061983;28;20048;-61
2022/01/12 11:07:07;;;;;;;0.00;0.00;;;3.40;99.90;;;;;;5061653;28;20131;-61
2022/01/12 11:09:34;;;;;;;0.15;0.15;;;3.50;99.90;;;;;;5061691;28;20135;-64
2022/01/12 11:12:00;;;;;;;0.00;0.00;;;3.50;99.90;;;;;;5042554;28;20728;-61
2022/01/12 11:14:26;;;;;;;0.00;0.00;;;3.50;99.90;;;;;;5043299;28;20056;-63
2022/01/12 11:16:52;;;;;;;0.00;0.00;;;3.60;99.90;;;;;;5061830;28;20102;-62
2022/01/12 11:19:19;;;;;;;0.10;0.10;;;3.50;99.90;;;;;;5043713;28;20391;-62
2022/01/12 11:22:14;;;;;;;0.00;0.00;;;3.60;99.90;;;;;;5042714;28;20049;-61
2022/01/12 11:24:39;;;;;;;0.00;0.00;;;3.70;99.90;;;;;;5043603;28;20061;-63
2022/01/12 11:27:06;;;;;;;0.00;0.00;;;3.80;99.90;;;;;;5041009;28;20041;-64
2022/01/12 11:29:34;;;;;;;0.00;0.00;;;3.70;99.90;;;;;;5039212;28;20527;-66
2022/01/12 11:32:12;;;;;;;0.00;0.00;;;3.80;99.90;;;;;;5040447;28;20041;-64
2022/01/12 11:34:38;;;;;;;0.00;0.00;;;3.80;99.90;;;;;;5006105;28;20037;-64
2022/01/12 11:37:16;;;;;;;0.00;0.00;;;3.80;99.90;;;;;;5040886;28;20040;-64
2022/01/12 11:39:42;;;;;;;0.00;0.00;;;4.20;99.90;;;;;;5040867;28;20072;-65
2022/01/12 11:42:08;;;;;;;0.00;0.00;;;3.80;99.90;;;;;;5039797;28;20045;-64
2022/01/12 11:44:36;;;;;;;0.00;0.00;;;3.80;99.90;;;;;;5041386;28;20561;-64
2022/01/12 11:47:04;;;;;;;0.00;0.00;;;3.80;99.90;;;;;;5041200;28;20055;-66
2022/01/12 11:49:43;;;;;;;0.00;0.00;;;3.80;99.90;;;;;;5041082;28;20068;-64
2022/01/12 11:52:14;;;;;;;0.00;0.00;;;3.80;99.90;;;;;;5023103;28;20041;-64
2022/01/12 11:54:43;;;;;;;0.00;0.00;;;3.80;99.90;;;;;;5040953;28;20519;-64
2022/01/12 11:57:18;;;;;;;0.00;0.00;;;3.80;99.90;;;;;;5021678;28;20055;-64
2022/01/12 12:00:00;;;;;;;0.00;0.00;;;3.80;99.90;;;;;;5040882;28;20053;-64
2022/01/12 12:02:35;;;;;;;0.00;0.00;;;3.90;99.90;;;;;;5040291;28;20130;-64
2022/01/12 12:05:11;;;;;;;0.00;0.00;;;3.90;99.90;;;;;;5023357;28;20122;-64
2022/01/12 12:08:04;;;;;;;0.00;0.00;;;3.90;99.90;;;;;;5040129;28;20064;-63
2022/01/12 12:10:38;;;;;;;0.00;0.00;;;4.00;99.90;;;;;;5036947;28;20053;-64
2022/01/12 12:13:06;;;;;;;0.00;0.00;;;4.20;99.90;;;;;;5039202;28;20099;-64
2022/01/12 12:15:33;;;;;;;0.00;0.00;;;4.10;99.90;;;;;;5039864;28;20105;-64
2022/01/12 12:18:03;;;;;;;0.00;0.00;;;4.20;99.90;;;;;;5040132;28;20045;-64
2022/01/12 12:20:31;;;;;;;0.00;0.00;;;4.20;99.90;;;;;;5022671;28;20056;-64
2022/01/12 12:22:57;;;;;;;0.80;0.75;;;4.20;99.90;;;;;;5038873;28;20037;-64
2022/01/12 12:25:25;;;;;;;0.00;0.00;;;4.20;99.90;;;;;;5040216;28;20045;-64
2022/01/12 12:27:53;;;;;;;0.00;0.00;;;4.20;99.90;;;;;;5041593;28;20423;-64
2022/01/12 12:30:21;;;;;;;0.00;0.00;;;4.30;99.90;;;;;;5037869;28;20416;-64
2022/01/12 12:32:49;;;;;;;0.00;0.00;;;4.50;99.90;;;;;;5020694;28;20704;-64
2022/01/12 12:35:19;;;;;;;0.00;0.00;;;4.30;99.90;;;;;;5021981;28;20110;-64
2022/01/12 12:37:54;;;;;;;0.05;0.05;;;4.40;99.90;;;;;;5038359;28;20084;-64
2022/01/12 12:40:22;;;;;;;;;;;4.40;99.90;;;;;;5021346;28;20064;-64
2022/01/12 12:43:00;;;;;;;0.00;0.00;;;4.40;99.90;;;;;;5038665;28;19920;-64
2022/01/12 12:45:54;;;;;;;0.00;0.00;;;4.40;99.90;;;;;;5038336;28;20171;-64
2022/01/12 12:48:24;;;;;;;0.00;0.00;;;4.50;99.90;;;;;;5039623;28;20056;-64
2022/01/12 12:51:14;;;;;;;0.00;0.00;;;5.00;99.90;;;;;;5021671;28;20164;-63
2022/01/12 12:53:46;;;;;;;0.00;0.00;;;4.60;99.90;;;;;;5039164;28;20427;-65
2022/01/12 12:56:16;;;;;;;0.00;0.00;;;4.60;99.90;;;;;;5037082;28;20052;-65
2022/01/12 12:58:48;;;;;;;0.00;0.00;;;4.60;99.90;;;;;;5037591;28;20124;-65
2022/01/12 13:01:15;;;;;;;0.00;0.00;;;4.70;99.90;;;;;;5039083;28;20144;-65
2022/01/12 13:03:57;;;;;;;0.00;0.00;;;4.70;99.90;;;;;;5021119;28;20406;-65
2022/01/12 13:06:35;;;;;;;0.00;0.00;;;4.70;99.90;;;;;;5038052;28;20044;-65
2022/01/12 13:09:05;;;;;;;0.00;0.00;;;4.60;99.90;;;;;;5039568;28;20059;-65
2022/01/12 13:11:38;;;;;;;0.00;0.00;;;4.60;99.90;;;;;;5038427;28;20059;-66
2022/01/12 13:14:07;;;;;;;0.10;0.10;;;4.60;99.90;;;;;;5020580;28;20063;-65
2022/01/12 13:16:33;;;;;;;0.00;0.00;;;4.60;99.90;;;;;;5039170;28;20049;-65
2022/01/12 13:19:07;;;;;;;0.00;0.00;;;4.60;99.90;;;;;;5037312;28;20040;-65
2022/01/12 13:21:35;;;;;;;2.40;0.82;;;4.60;99.90;;;;;;5021465;28;20068;-65
2022/01/12 13:24:01;;;;;;;0.00;0.00;;;4.60;99.90;;;;;;5038573;28;20041;-65
2022/01/12 13:26:32;;;;;;;0.00;0.00;;;4.60;99.90;;;;;;5037633;28;20040;-65
2022/01/12 13:29:03;;;;;;;0.00;0.00;;;4.60;99.90;;;;;;5037819;28;20514;-65
2022/01/12 13:31:29;;;;;;;0.10;0.10;;;4.60;99.90;;;;;;5039360;28;20053;-65
2022/01/12 13:33:58;;;;;;;0.00;0.00;;;4.60;99.90;;;;;;5038691;28;20056;-65
2022/01/12 13:36:25;;;;;;;0.03;0.03;;;4.60;99.90;;;;;;5038660;28;20695;-65
2022/01/12 13:39:06;;;;;;;0.20;0.20;;;4.60;99.90;;;;;;5038802;28;20045;-66
2022/01/12 13:41:35;;;;;;;0.10;0.10;;;4.60;99.90;;;;;;5037711;28;20049;-65
2022/01/12 13:44:05;;;;;;;0.00;0.00;;;4.60;99.90;;;;;;5021086;28;20047;-65
2022/01/12 13:46:37;;;;;;;0.00;0.00;;;4.60;99.90;;;;;;5039314;28;20466;-65
2022/01/12 13:51:51;;;;;;;0.00;0.00;;;4.60;99.90;;;;;;5038653;28;20049;-66
2022/01/12 13:54:16;;;;;;;0.88;0.38;;;4.60;99.90;;;;;;5038440;28;20513;-66
2022/01/12 13:56:49;;;;;;;0.00;0.00;;;4.60;99.90;;;;;;5037596;28;20053;-66
2022/01/12 13:59:17;;;;;;;0.00;0.00;;;4.60;99.90;;;;;;5021122;28;20428;-66
2022/01/12 14:01:44;;;;;;;0.10;0.10;;;4.60;99.90;;;;;;5038844;28;20419;-66
2022/01/12 14:04:22;;;;;;;0.00;0.00;;;4.50;99.90;;;;;;5038104;28;20080;-66
2022/01/12 14:06:52;;;;;;;0.00;0.00;;;4.60;99.90;;;;;;5038500;28;20044;-66
2022/01/12 14:11:49;;;;;;;0.00;0.00;;;4.60;99.90;;;;;;5037216;28;20088;-65
2022/01/12 14:14:18;;;;;;;0.00;0.00;;;4.60;99.90;;;;;;5040691;28;20048;-66
2022/01/12 14:16:44;;;;;;;0.00;0.00;;;4.60;99.90;;;;;;5045434;28;20037;-66
2022/01/12 14:19:11;;;;;;;0.00;0.00;;;4.70;99.90;;;;;;5044366;28;20049;-65
2022/01/12 14:21:37;;;;;;;0.00;0.00;;;4.60;99.90;;;;;;5045446;28;20098;-66
2022/01/12 14:24:08;;;;;;;0.00;0.00;;;4.60;99.90;;;;;;5045124;28;20131;-66
2022/01/12 14:26:38;;;;;;;0.00;0.00;;;4.60;99.90;;;;;;5044125;28;20127;-65